THY87J EHAM-LTFM
Flight info
| Callsign | THY87J |
|---|---|
| Flight time | N/A |
| Altitude | 39000 |
| Route | EDUPO Z739 MISGO DCT GMH DCT EKSAK DCT SWALM DCT GASKA DCT ENITA DCT ETVIS DCT BUDEX DCT TEKNO DCT OGVUN DCT DUZLA DCT MAVIR DCT TIMUR L606 GASRU DCT RILEX |
| Aircraft | A333/H-SDE3GHIJ2J3J5M1RVWXY/LB2D1 |
Departure
| Time | 2026-04-28 14:10 |
|---|---|
| Airport | Amsterdam Airport Schiphol (EHAM) |
Arrival
| Time | N/A |
|---|---|
| Airport | İstanbul Airport (LTFM) |
| Time | Latitude | Longitude | Altitude | Speed | Heading |
|---|---|---|---|---|---|
| 2026-04-28 13:49 | 52.31159 | 4.74724 | 1 ft | 0 kts | 93° |
| 2026-04-28 14:02 | 52.31161 | 4.74691 | 1 ft | 8 kts | 93° |
| 2026-04-28 14:02 | 52.31163 | 4.74626 | 1 ft | 5 kts | 80° |
| 2026-04-28 14:02 | 52.31144 | 4.74583 | 4 ft | 5 kts | 28° |
| 2026-04-28 14:03 | 52.31128 | 4.74571 | 3 ft | 0 kts | 1° |
| 2026-04-28 14:04 | 52.31134 | 4.74571 | 4 ft | 1 kts | 1° |
| 2026-04-28 14:04 | 52.31135 | 4.74571 | 4 ft | 0 kts | 1° |
| 2026-04-28 14:05 | 52.31137 | 4.74571 | 4 ft | 1 kts | 1° |
| 2026-04-28 14:05 | 52.31145 | 4.74572 | 4 ft | 2 kts | 2° |
| 2026-04-28 14:05 | 52.31160 | 4.74573 | 3 ft | 3 kts | 2° |
| 2026-04-28 14:06 | 52.31180 | 4.74575 | 2 ft | 3 kts | 3° |
| 2026-04-28 14:06 | 52.31205 | 4.74577 | 1 ft | 4 kts | 4° |
| 2026-04-28 14:06 | 52.31236 | 4.74581 | 1 ft | 5 kts | 4° |
| 2026-04-28 14:06 | 52.31272 | 4.74585 | 1 ft | 6 kts | 4° |
| 2026-04-28 14:07 | 52.31324 | 4.74588 | 1 ft | 9 kts | 2° |
| 2026-04-28 14:07 | 52.31388 | 4.74619 | 1 ft | 10 kts | 33° |
| 2026-04-28 14:07 | 52.31456 | 4.74667 | 1 ft | 11 kts | 6° |
| 2026-04-28 14:07 | 52.31539 | 4.74663 | 1 ft | 7 kts | 357° |
| 2026-04-28 14:08 | 52.31540 | 4.74663 | 1 ft | 0 kts | 357° |
| 2026-04-28 14:08 | 52.31559 | 4.74662 | 2 ft | 5 kts | 358° |
| 2026-04-28 14:09 | 52.31582 | 4.74661 | 3 ft | 2 kts | 359° |
| 2026-04-28 14:09 | 52.31601 | 4.74662 | 4 ft | 5 kts | 2° |
| 2026-04-28 14:09 | 52.31641 | 4.74679 | 4 ft | 8 kts | 28° |
| 2026-04-28 14:09 | 52.31668 | 4.74765 | 3 ft | 17 kts | 78° |
| 2026-04-28 14:10 | 52.31695 | 4.75166 | -1 ft | 41 kts | 89° |
| 2026-04-28 14:10 | 52.31710 | 4.75894 | 1 ft | 95 kts | 88° |
| 2026-04-28 14:10 | 52.31756 | 4.77324 | 117 ft | 147 kts | 85° |
| 2026-04-28 14:10 | 52.31792 | 4.78916 | 1118 ft | 135 kts | 82° |
| 2026-04-28 14:11 | 52.31853 | 4.80409 | 2232 ft | 126 kts | 82° |
| 2026-04-28 14:11 | 52.31902 | 4.81805 | 3117 ft | 121 kts | 84° |
| 2026-04-28 14:11 | 52.31952 | 4.83168 | 3755 ft | 121 kts | 85° |
| 2026-04-28 14:11 | 52.32005 | 4.84623 | 3958 ft | 141 kts | 85° |
| 2026-04-28 14:12 | 52.32010 | 4.86350 | 4223 ft | 163 kts | 95° |
| 2026-04-28 14:12 | 52.31699 | 4.88231 | 4693 ft | 178 kts | 109° |
| 2026-04-28 14:12 | 52.31213 | 4.90126 | 5380 ft | 183 kts | 111° |
| 2026-04-28 14:12 | 52.30694 | 4.92039 | 6125 ft | 185 kts | 111° |
| 2026-04-28 14:13 | 52.30170 | 4.93978 | 6863 ft | 188 kts | 111° |
| 2026-04-28 14:13 | 52.29663 | 4.95933 | 7721 ft | 187 kts | 109° |
| 2026-04-28 14:13 | 52.29256 | 4.97964 | 8511 ft | 190 kts | 105° |
| 2026-04-28 14:13 | 52.28886 | 5.00057 | 9314 ft | 193 kts | 104° |
| 2026-04-28 14:14 | 52.28517 | 5.02197 | 10080 ft | 200 kts | 104° |
| 2026-04-28 14:14 | 52.28138 | 5.04388 | 10876 ft | 199 kts | 104° |
| 2026-04-28 14:14 | 52.27757 | 5.06585 | 11667 ft | 202 kts | 104° |
| 2026-04-28 14:14 | 52.27375 | 5.08781 | 12480 ft | 203 kts | 104° |
| 2026-04-28 14:15 | 52.26980 | 5.11052 | 13080 ft | 212 kts | 104° |
| 2026-04-28 14:15 | 52.26570 | 5.13401 | 13725 ft | 218 kts | 104° |
| 2026-04-28 14:15 | 52.26148 | 5.15813 | 14343 ft | 223 kts | 104° |
| 2026-04-28 14:15 | 52.25719 | 5.18258 | 14972 ft | 226 kts | 104° |
| 2026-04-28 14:16 | 52.25285 | 5.20729 | 15613 ft | 225 kts | 104° |
| 2026-04-28 14:16 | 52.24853 | 5.23195 | 15957 ft | 232 kts | 105° |
| 2026-04-28 14:16 | 52.24279 | 5.25708 | 16232 ft | 240 kts | 114° |
| 2026-04-28 14:16 | 52.23410 | 5.28097 | 16389 ft | 247 kts | 122° |
| 2026-04-28 14:17 | 52.22421 | 5.30393 | 16743 ft | 248 kts | 122° |
| 2026-04-28 14:17 | 52.21414 | 5.32689 | 17126 ft | 250 kts | 122° |
| 2026-04-28 14:17 | 52.20399 | 5.35009 | 17523 ft | 253 kts | 122° |
| 2026-04-28 14:17 | 52.19374 | 5.37356 | 17939 ft | 255 kts | 123° |
| 2026-04-28 14:18 | 52.18342 | 5.39722 | 18336 ft | 257 kts | 122° |
| 2026-04-28 14:18 | 52.17304 | 5.42100 | 18726 ft | 258 kts | 122° |
| 2026-04-28 14:18 | 52.16260 | 5.44496 | 19074 ft | 260 kts | 123° |
| 2026-04-28 14:18 | 52.15211 | 5.46897 | 19441 ft | 260 kts | 122° |
| 2026-04-28 14:19 | 52.14160 | 5.49303 | 19807 ft | 261 kts | 123° |
| 2026-04-28 14:19 | 52.13106 | 5.51713 | 20184 ft | 261 kts | 122° |
| 2026-04-28 14:19 | 52.12051 | 5.54124 | 20558 ft | 261 kts | 123° |
| 2026-04-28 14:19 | 52.10998 | 5.56530 | 20933 ft | 261 kts | 123° |
| 2026-04-28 14:20 | 52.09950 | 5.58919 | 21310 ft | 260 kts | 124° |
| 2026-04-28 14:20 | 52.08900 | 5.61312 | 21707 ft | 258 kts | 123° |
| 2026-04-28 14:20 | 52.07858 | 5.63684 | 22080 ft | 257 kts | 124° |
| 2026-04-28 14:20 | 52.06827 | 5.66029 | 22472 ft | 254 kts | 124° |
| 2026-04-28 14:21 | 52.05749 | 5.68289 | 22865 ft | 251 kts | 128° |
| 2026-04-28 14:21 | 52.04626 | 5.70431 | 23269 ft | 247 kts | 128° |
| 2026-04-28 14:21 | 52.03507 | 5.72520 | 23683 ft | 243 kts | 128° |
| 2026-04-28 14:21 | 52.02411 | 5.74560 | 24020 ft | 237 kts | 129° |
| 2026-04-28 14:22 | 52.01346 | 5.76540 | 24366 ft | 229 kts | 129° |
| 2026-04-28 14:22 | 52.00285 | 5.78491 | 24564 ft | 234 kts | 130° |
| 2026-04-28 14:22 | 51.99159 | 5.80475 | 24604 ft | 244 kts | 131° |
| 2026-04-28 14:22 | 51.97982 | 5.82444 | 24921 ft | 240 kts | 133° |
| 2026-04-28 14:23 | 51.96812 | 5.84286 | 25327 ft | 233 kts | 131° |
| 2026-04-28 14:23 | 51.95855 | 5.86590 | 24858 ft | 261 kts | 111° |
| 2026-04-28 14:23 | 51.95105 | 5.89415 | 24614 ft | 286 kts | 110° |
| 2026-04-28 14:23 | 51.94305 | 5.92535 | 24293 ft | 315 kts | 110° |
| 2026-04-28 14:24 | 51.93398 | 5.95923 | 24106 ft | 338 kts | 114° |
| 2026-04-28 14:24 | 51.92356 | 5.99427 | 24221 ft | 351 kts | 115° |
| 2026-04-28 14:24 | 51.91216 | 6.03007 | 24336 ft | 364 kts | 116° |
| 2026-04-28 14:24 | 51.90004 | 6.06672 | 24505 ft | 374 kts | 117° |
| 2026-04-28 14:25 | 51.88743 | 6.10427 | 24666 ft | 385 kts | 116° |
| 2026-04-28 14:25 | 51.87446 | 6.14277 | 24857 ft | 394 kts | 118° |
| 2026-04-28 14:25 | 51.86125 | 6.18200 | 25173 ft | 399 kts | 118° |
| 2026-04-28 14:25 | 51.84797 | 6.22149 | 25595 ft | 401 kts | 118° |
| 2026-04-28 14:26 | 51.83467 | 6.26111 | 26021 ft | 402 kts | 117° |
| 2026-04-28 14:26 | 51.82131 | 6.30096 | 26398 ft | 404 kts | 117° |
| 2026-04-28 14:26 | 51.80789 | 6.34102 | 26740 ft | 408 kts | 118° |
| 2026-04-28 14:26 | 51.79447 | 6.38103 | 27007 ft | 413 kts | 117° |
| 2026-04-28 14:27 | 51.78076 | 6.42187 | 27381 ft | 415 kts | 117° |
| 2026-04-28 14:27 | 51.76696 | 6.46288 | 27769 ft | 416 kts | 118° |
| 2026-04-28 14:27 | 51.75311 | 6.50397 | 28142 ft | 418 kts | 117° |
| 2026-04-28 14:27 | 51.73917 | 6.54525 | 28506 ft | 420 kts | 117° |
| 2026-04-28 14:28 | 51.72515 | 6.58671 | 28876 ft | 422 kts | 117° |
| 2026-04-28 14:28 | 51.71106 | 6.62827 | 29208 ft | 424 kts | 117° |
| 2026-04-28 14:28 | 51.69688 | 6.67007 | 29542 ft | 426 kts | 118° |
| 2026-04-28 14:28 | 51.68263 | 6.71197 | 29870 ft | 428 kts | 117° |
| 2026-04-28 14:29 | 51.66827 | 6.75414 | 30186 ft | 430 kts | 116° |
| 2026-04-28 14:29 | 51.65385 | 6.79643 | 30439 ft | 433 kts | 118° |
| 2026-04-28 14:29 | 51.62442 | 6.88249 | 30802 ft | 441 kts | 118° |
| 2026-04-28 14:30 | 51.60960 | 6.92572 | 31159 ft | 440 kts | 118° |
| 2026-04-28 14:30 | 51.59477 | 6.96887 | 31424 ft | 442 kts | 118° |
| 2026-04-28 14:30 | 51.57986 | 7.01221 | 31646 ft | 445 kts | 118° |
| 2026-04-28 14:30 | 51.56481 | 7.05585 | 31880 ft | 446 kts | 119° |
| 2026-04-28 14:31 | 51.54978 | 7.09938 | 32230 ft | 446 kts | 119° |
| 2026-04-28 14:31 | 51.53479 | 7.14272 | 32654 ft | 443 kts | 119° |
| 2026-04-28 14:31 | 51.51972 | 7.18622 | 32810 ft | 447 kts | 119° |
| 2026-04-28 14:31 | 51.50451 | 7.23001 | 32953 ft | 451 kts | 120° |
| 2026-04-28 14:32 | 51.48918 | 7.27411 | 33126 ft | 454 kts | 120° |
| 2026-04-28 14:32 | 51.47380 | 7.31827 | 33430 ft | 453 kts | 120° |
| 2026-04-28 14:32 | 51.45851 | 7.36210 | 33816 ft | 451 kts | 120° |
| 2026-04-28 14:32 | 51.44311 | 7.40618 | 34060 ft | 453 kts | 120° |
| 2026-04-28 14:33 | 51.42763 | 7.45039 | 34187 ft | 455 kts | 120° |
| 2026-04-28 14:33 | 51.41217 | 7.49444 | 34526 ft | 452 kts | 120° |
| 2026-04-28 14:33 | 51.39683 | 7.53814 | 34880 ft | 449 kts | 120° |
| 2026-04-28 14:33 | 51.38147 | 7.58177 | 35028 ft | 451 kts | 120° |
| 2026-04-28 14:34 | 51.35047 | 7.66962 | 35370 ft | 454 kts | 120° |
| 2026-04-28 14:34 | 51.33517 | 7.71287 | 35642 ft | 452 kts | 120° |
| 2026-04-28 14:34 | 51.32473 | 7.74236 | 35862 ft | 450 kts | 120° |
| 2026-04-28 14:35 | 51.30424 | 7.80011 | 36082 ft | 451 kts | 120° |
| 2026-04-28 14:35 | 51.28876 | 7.84364 | 36289 ft | 451 kts | 120° |
| 2026-04-28 14:35 | 51.27325 | 7.88719 | 36489 ft | 451 kts | 120° |
| 2026-04-28 14:35 | 51.25773 | 7.93067 | 36666 ft | 451 kts | 120° |
| 2026-04-28 14:36 | 51.24218 | 7.97417 | 36850 ft | 451 kts | 120° |
| 2026-04-28 14:36 | 51.22662 | 8.01762 | 37012 ft | 452 kts | 120° |
| 2026-04-28 14:36 | 51.21101 | 8.06114 | 37198 ft | 452 kts | 120° |
| 2026-04-28 14:36 | 51.19535 | 8.10472 | 37310 ft | 454 kts | 120° |
| 2026-04-28 14:37 | 51.17961 | 8.14845 | 37350 ft | 457 kts | 120° |
| 2026-04-28 14:37 | 51.16317 | 8.19406 | 37397 ft | 460 kts | 120° |
| 2026-04-28 14:38 | 51.13996 | 8.25830 | 37489 ft | 464 kts | 120° |
| 2026-04-28 14:38 | 51.10756 | 8.34770 | 37639 ft | 469 kts | 120° |
| 2026-04-28 14:39 | 51.07480 | 8.43780 | 37756 ft | 475 kts | 120° |
| 2026-04-28 14:39 | 51.04137 | 8.52941 | 37883 ft | 480 kts | 120° |
| 2026-04-28 14:40 | 51.00707 | 8.61496 | 37919 ft | 486 kts | 127° |
| 2026-04-28 14:40 | 50.96888 | 8.69571 | 37521 ft | 487 kts | 126° |
| 2026-04-28 14:40 | 50.94949 | 8.73614 | 37349 ft | 487 kts | 128° |
| 2026-04-28 14:41 | 50.92890 | 8.77831 | 37426 ft | 483 kts | 128° |
| 2026-04-28 14:41 | 50.91574 | 8.80648 | 37687 ft | 481 kts | 126° |
| 2026-04-28 14:41 | 50.89210 | 8.86173 | 38089 ft | 469 kts | 123° |
| 2026-04-28 14:41 | 50.87549 | 8.90532 | 38353 ft | 467 kts | 120° |
| 2026-04-28 14:42 | 50.85996 | 8.95115 | 38630 ft | 464 kts | 116° |
| 2026-04-28 14:42 | 50.84634 | 8.99709 | 38905 ft | 461 kts | 113° |
| 2026-04-28 14:42 | 50.83110 | 9.04070 | 38973 ft | 460 kts | 132° |
| 2026-04-28 14:43 | 50.78300 | 9.10843 | 38807 ft | 468 kts | 145° |
| 2026-04-28 14:43 | 50.75742 | 9.14032 | 38924 ft | 469 kts | 139° |
| 2026-04-28 14:43 | 50.73389 | 9.17585 | 39151 ft | 467 kts | 133° |
| 2026-04-28 14:43 | 50.71415 | 9.21621 | 39377 ft | 464 kts | 122° |
| 2026-04-28 14:44 | 50.69763 | 9.25979 | 39517 ft | 463 kts | 119° |
| 2026-04-28 14:44 | 50.68211 | 9.30479 | 39285 ft | 473 kts | 117° |
| 2026-04-28 14:44 | 50.66692 | 9.35116 | 39208 ft | 478 kts | 117° |
| 2026-04-28 14:45 | 50.63646 | 9.44508 | 39195 ft | 485 kts | 117° |
| 2026-04-28 14:45 | 50.61024 | 9.52440 | 39195 ft | 490 kts | 118° |
| 2026-04-28 14:46 | 50.57833 | 9.61921 | 39197 ft | 497 kts | 118° |
| 2026-04-28 14:46 | 50.54559 | 9.71562 | 39192 ft | 503 kts | 118° |
| 2026-04-28 14:47 | 50.51234 | 9.81309 | 39193 ft | 509 kts | 118° |
| 2026-04-28 14:47 | 50.47863 | 9.91159 | 39191 ft | 514 kts | 118° |
| 2026-04-28 14:48 | 50.44468 | 10.01050 | 39169 ft | 514 kts | 118° |
| 2026-04-28 14:48 | 50.41075 | 10.10894 | 39182 ft | 514 kts | 118° |
| 2026-04-28 14:49 | 50.37670 | 10.20735 | 39193 ft | 514 kts | 118° |
| 2026-04-28 14:49 | 50.34316 | 10.30649 | 39184 ft | 516 kts | 116° |
| 2026-04-28 14:50 | 50.31360 | 10.40875 | 39182 ft | 516 kts | 113° |
| 2026-04-28 14:50 | 50.28516 | 10.51168 | 39178 ft | 515 kts | 113° |
| 2026-04-28 14:51 | 50.25635 | 10.61427 | 39176 ft | 516 kts | 114° |
| 2026-04-28 14:51 | 50.22700 | 10.71683 | 39181 ft | 518 kts | 114° |
| 2026-04-28 14:52 | 50.19741 | 10.81931 | 39181 ft | 518 kts | 114° |
| 2026-04-28 14:52 | 50.16770 | 10.92170 | 39175 ft | 518 kts | 114° |
| 2026-04-28 14:53 | 50.13792 | 11.02399 | 39173 ft | 518 kts | 114° |
| 2026-04-28 14:53 | 50.10799 | 11.12640 | 39170 ft | 520 kts | 115° |
| 2026-04-28 14:54 | 50.07793 | 11.22881 | 39175 ft | 520 kts | 115° |
| 2026-04-28 14:54 | 50.04778 | 11.33110 | 39170 ft | 520 kts | 115° |
| 2026-04-28 14:55 | 50.01754 | 11.43326 | 39170 ft | 520 kts | 115° |
| 2026-04-28 14:55 | 49.98715 | 11.53548 | 39171 ft | 522 kts | 115° |
| 2026-04-28 14:56 | 49.95656 | 11.63795 | 39171 ft | 523 kts | 115° |
| 2026-04-28 14:56 | 49.92610 | 11.73955 | 39166 ft | 523 kts | 115° |
| 2026-04-28 14:57 | 49.89536 | 11.84168 | 39149 ft | 522 kts | 115° |
| 2026-04-28 14:57 | 49.86448 | 11.94382 | 39146 ft | 524 kts | 115° |
| 2026-04-28 14:58 | 49.83344 | 12.04607 | 39144 ft | 524 kts | 115° |
| 2026-04-28 14:58 | 49.80231 | 12.14819 | 39145 ft | 524 kts | 115° |
| 2026-04-28 14:59 | 49.77110 | 12.25012 | 39155 ft | 524 kts | 116° |
| 2026-04-28 14:59 | 49.73973 | 12.35220 | 39160 ft | 526 kts | 116° |
| 2026-04-28 15:00 | 49.70895 | 12.45484 | 39162 ft | 527 kts | 110° |
| 2026-04-28 15:00 | 49.68934 | 12.56373 | 39168 ft | 526 kts | 102° |
| 2026-04-28 15:01 | 49.67348 | 12.67407 | 39167 ft | 526 kts | 101° |
| 2026-04-28 15:01 | 49.65703 | 12.78433 | 39171 ft | 528 kts | 108° |
| 2026-04-28 15:02 | 49.62582 | 12.88653 | 39170 ft | 528 kts | 121° |
| 2026-04-28 15:02 | 49.58765 | 12.98309 | 39162 ft | 527 kts | 123° |
| 2026-04-28 15:03 | 49.54816 | 13.07832 | 39160 ft | 527 kts | 123° |
| 2026-04-28 15:03 | 49.50866 | 13.17348 | 39176 ft | 527 kts | 123° |
| 2026-04-28 15:04 | 49.46932 | 13.26873 | 39173 ft | 528 kts | 123° |
| 2026-04-28 15:04 | 49.43002 | 13.36390 | 39168 ft | 527 kts | 123° |
| 2026-04-28 15:05 | 49.39087 | 13.45840 | 39161 ft | 528 kts | 123° |
| 2026-04-28 15:05 | 49.35126 | 13.55366 | 39151 ft | 531 kts | 123° |
| 2026-04-28 15:06 | 49.31148 | 13.64896 | 39145 ft | 530 kts | 123° |
| 2026-04-28 15:06 | 49.27164 | 13.74407 | 39146 ft | 530 kts | 123° |
| 2026-04-28 15:07 | 49.23175 | 13.83893 | 39145 ft | 530 kts | 123° |
| 2026-04-28 15:07 | 49.19172 | 13.93381 | 39143 ft | 531 kts | 123° |
| 2026-04-28 15:08 | 49.15157 | 14.02862 | 39144 ft | 531 kts | 123° |
| 2026-04-28 15:08 | 49.11136 | 14.12323 | 39145 ft | 531 kts | 124° |
| 2026-04-28 15:09 | 49.07103 | 14.21779 | 39130 ft | 532 kts | 124° |
| 2026-04-28 15:09 | 49.03053 | 14.31243 | 39131 ft | 533 kts | 124° |
| 2026-04-28 15:10 | 48.98993 | 14.40695 | 39137 ft | 533 kts | 124° |
| 2026-04-28 15:10 | 48.94926 | 14.50131 | 39128 ft | 533 kts | 124° |
| 2026-04-28 15:11 | 48.90854 | 14.59547 | 39135 ft | 533 kts | 124° |
| 2026-04-28 15:11 | 48.86768 | 14.68959 | 39132 ft | 534 kts | 124° |
| 2026-04-28 15:12 | 48.82676 | 14.78354 | 39131 ft | 533 kts | 124° |
| 2026-04-28 15:12 | 48.78575 | 14.87736 | 39137 ft | 533 kts | 124° |
| 2026-04-28 15:13 | 48.74464 | 14.97108 | 39133 ft | 534 kts | 124° |
| 2026-04-28 15:13 | 48.70337 | 15.06484 | 39133 ft | 535 kts | 124° |
| 2026-04-28 15:14 | 48.66236 | 15.15770 | 39135 ft | 535 kts | 124° |
| 2026-04-28 15:14 | 48.62096 | 15.25110 | 39136 ft | 535 kts | 124° |
| 2026-04-28 15:15 | 48.57948 | 15.34437 | 39140 ft | 535 kts | 124° |
| 2026-04-28 15:15 | 48.53794 | 15.43744 | 39134 ft | 535 kts | 124° |
| 2026-04-28 15:16 | 48.49630 | 15.53041 | 39134 ft | 535 kts | 125° |
| 2026-04-28 15:16 | 48.45461 | 15.62318 | 39111 ft | 535 kts | 124° |
| 2026-04-28 15:17 | 48.41273 | 15.71607 | 39138 ft | 537 kts | 125° |
| 2026-04-28 15:17 | 48.37069 | 15.80897 | 39131 ft | 537 kts | 125° |
| 2026-04-28 15:18 | 48.32860 | 15.90170 | 39132 ft | 537 kts | 125° |
| 2026-04-28 15:18 | 48.28641 | 15.99430 | 39130 ft | 537 kts | 125° |
| 2026-04-28 15:19 | 48.24410 | 16.08686 | 39142 ft | 539 kts | 125° |
| 2026-04-28 15:19 | 48.20164 | 16.17942 | 39134 ft | 539 kts | 125° |
| 2026-04-28 15:20 | 48.15910 | 16.27184 | 39129 ft | 539 kts | 125° |
| 2026-04-28 15:20 | 48.11646 | 16.36416 | 39124 ft | 540 kts | 125° |
| 2026-04-28 15:21 | 48.07367 | 16.45651 | 39130 ft | 539 kts | 125° |
| 2026-04-28 15:21 | 48.03089 | 16.54850 | 39127 ft | 539 kts | 125° |
| 2026-04-28 15:22 | 47.98804 | 16.64035 | 39130 ft | 539 kts | 125° |
| 2026-04-28 15:22 | 47.94537 | 16.73151 | 39124 ft | 539 kts | 125° |
| 2026-04-28 15:23 | 47.90238 | 16.82305 | 39126 ft | 539 kts | 125° |
| 2026-04-28 15:23 | 47.85931 | 16.91444 | 39123 ft | 539 kts | 126° |
| 2026-04-28 15:24 | 47.81614 | 17.00574 | 39121 ft | 539 kts | 126° |
| 2026-04-28 15:24 | 47.77294 | 17.09680 | 39119 ft | 538 kts | 126° |
| 2026-04-28 15:25 | 47.72969 | 17.18766 | 39122 ft | 539 kts | 126° |
| 2026-04-28 15:25 | 47.68638 | 17.27835 | 39114 ft | 538 kts | 126° |
| 2026-04-28 15:26 | 47.64299 | 17.36890 | 39115 ft | 538 kts | 126° |
| 2026-04-28 15:26 | 47.59862 | 17.45827 | 39126 ft | 538 kts | 129° |
| 2026-04-28 15:27 | 47.55224 | 17.54514 | 39122 ft | 538 kts | 130° |
| 2026-04-28 15:27 | 47.50549 | 17.63157 | 39128 ft | 538 kts | 129° |
| 2026-04-28 15:28 | 47.45891 | 17.71805 | 39128 ft | 538 kts | 129° |
| 2026-04-28 15:28 | 47.41269 | 17.80400 | 39124 ft | 538 kts | 129° |
| 2026-04-28 15:29 | 47.36680 | 17.89123 | 39117 ft | 538 kts | 127° |
| 2026-04-28 15:29 | 47.32326 | 17.98114 | 39114 ft | 539 kts | 126° |
| 2026-04-28 15:30 | 47.28021 | 18.07143 | 39120 ft | 539 kts | 126° |
| 2026-04-28 15:30 | 47.23675 | 18.16158 | 39116 ft | 540 kts | 126° |
| 2026-04-28 15:31 | 47.19299 | 18.25142 | 39117 ft | 540 kts | 126° |
| 2026-04-28 15:31 | 47.14911 | 18.34104 | 39108 ft | 540 kts | 127° |
| 2026-04-28 15:32 | 47.10515 | 18.43054 | 39126 ft | 540 kts | 127° |
| 2026-04-28 15:32 | 47.06109 | 18.51996 | 39122 ft | 540 kts | 127° |
| 2026-04-28 15:33 | 47.01699 | 18.60921 | 39120 ft | 540 kts | 127° |
| 2026-04-28 15:33 | 46.97283 | 18.69829 | 39124 ft | 540 kts | 127° |
| 2026-04-28 15:34 | 46.93599 | 18.77223 | 39125 ft | 542 kts | 127° |
| 2026-04-28 15:34 | 46.89142 | 18.86105 | 39125 ft | 542 kts | 127° |
| 2026-04-28 15:35 | 46.84676 | 18.94970 | 39105 ft | 542 kts | 127° |
| 2026-04-28 15:35 | 46.77969 | 19.08239 | 39129 ft | 542 kts | 127° |
| 2026-04-28 15:36 | 46.73487 | 19.17073 | 39124 ft | 542 kts | 127° |
| 2026-04-28 15:36 | 46.68998 | 19.25893 | 39126 ft | 542 kts | 127° |
| 2026-04-28 15:37 | 46.64506 | 19.34691 | 39128 ft | 542 kts | 128° |
| 2026-04-28 15:37 | 46.60002 | 19.43484 | 39126 ft | 542 kts | 128° |
| 2026-04-28 15:38 | 46.55493 | 19.52261 | 39126 ft | 542 kts | 128° |
| 2026-04-28 15:38 | 46.50978 | 19.61019 | 39114 ft | 541 kts | 128° |
| 2026-04-28 15:39 | 46.46462 | 19.69754 | 39132 ft | 542 kts | 128° |
| 2026-04-28 15:39 | 46.41926 | 19.78500 | 39126 ft | 542 kts | 128° |
| 2026-04-28 15:40 | 46.37295 | 19.87116 | 39124 ft | 542 kts | 131° |
| 2026-04-28 15:40 | 46.32444 | 19.95462 | 39125 ft | 542 kts | 132° |
| 2026-04-28 15:41 | 46.27556 | 20.03753 | 39127 ft | 541 kts | 132° |
| 2026-04-28 15:41 | 46.22689 | 20.12047 | 39125 ft | 541 kts | 131° |
| 2026-04-28 15:42 | 46.17826 | 20.20355 | 39118 ft | 542 kts | 132° |
| 2026-04-28 15:42 | 46.12962 | 20.28654 | 39130 ft | 542 kts | 132° |
| 2026-04-28 15:43 | 46.08086 | 20.36947 | 39123 ft | 542 kts | 132° |
| 2026-04-28 15:43 | 46.03201 | 20.45228 | 39127 ft | 542 kts | 132° |
| 2026-04-28 15:44 | 45.98343 | 20.53437 | 39123 ft | 542 kts | 132° |
| 2026-04-28 15:44 | 45.93446 | 20.61687 | 39122 ft | 543 kts | 132° |
| 2026-04-28 15:45 | 45.88536 | 20.69936 | 39106 ft | 543 kts | 132° |
| 2026-04-28 15:45 | 45.83623 | 20.78165 | 39117 ft | 543 kts | 132° |
| 2026-04-28 15:46 | 45.78703 | 20.86381 | 39113 ft | 543 kts | 132° |
| 2026-04-28 15:46 | 45.73770 | 20.94593 | 39111 ft | 544 kts | 132° |
| 2026-04-28 15:47 | 45.68835 | 21.02786 | 39114 ft | 544 kts | 132° |
| 2026-04-28 15:47 | 45.63893 | 21.10967 | 39109 ft | 544 kts | 132° |
| 2026-04-28 15:48 | 45.58946 | 21.19130 | 39085 ft | 543 kts | 132° |
| 2026-04-28 15:48 | 45.54003 | 21.27265 | 39116 ft | 542 kts | 132° |
| 2026-04-28 15:49 | 45.49054 | 21.35384 | 39113 ft | 542 kts | 132° |
| 2026-04-28 15:49 | 45.44099 | 21.43489 | 39098 ft | 542 kts | 132° |
| 2026-04-28 15:50 | 45.39149 | 21.51565 | 39111 ft | 541 kts | 132° |
| 2026-04-28 15:50 | 45.34193 | 21.59625 | 39097 ft | 541 kts | 132° |
| 2026-04-28 15:51 | 45.29232 | 21.67671 | 39098 ft | 541 kts | 132° |
| 2026-04-28 15:51 | 45.24272 | 21.75691 | 39093 ft | 539 kts | 132° |
| 2026-04-28 15:52 | 45.19318 | 21.83679 | 39090 ft | 539 kts | 132° |
| 2026-04-28 15:52 | 45.14360 | 21.91650 | 39084 ft | 539 kts | 133° |
| 2026-04-28 15:53 | 45.09395 | 21.99611 | 39088 ft | 539 kts | 133° |
| 2026-04-28 15:53 | 45.04468 | 22.07488 | 39082 ft | 538 kts | 133° |
| 2026-04-28 15:54 | 44.99504 | 22.15401 | 39076 ft | 538 kts | 133° |
| 2026-04-28 15:54 | 44.94541 | 22.23291 | 39059 ft | 537 kts | 133° |
| 2026-04-28 15:55 | 44.89581 | 22.31154 | 39062 ft | 536 kts | 133° |
| 2026-04-28 15:55 | 44.84623 | 22.38992 | 39054 ft | 535 kts | 133° |
| 2026-04-28 15:56 | 44.79655 | 22.46823 | 39043 ft | 536 kts | 133° |
| 2026-04-28 15:56 | 44.74681 | 22.54640 | 39041 ft | 536 kts | 133° |
| 2026-04-28 15:57 | 44.69707 | 22.62437 | 39040 ft | 536 kts | 133° |
| 2026-04-28 15:57 | 44.64732 | 22.70214 | 39030 ft | 534 kts | 133° |
| 2026-04-28 15:58 | 44.59762 | 22.77962 | 39040 ft | 534 kts | 133° |
| 2026-04-28 15:58 | 44.54788 | 22.85694 | 39038 ft | 534 kts | 133° |
| 2026-04-28 15:59 | 44.49805 | 22.93418 | 39043 ft | 534 kts | 134° |
| 2026-04-28 15:59 | 44.44819 | 23.01127 | 39041 ft | 534 kts | 134° |
| 2026-04-28 16:00 | 44.39827 | 23.08823 | 39046 ft | 534 kts | 134° |
| 2026-04-28 16:00 | 44.34824 | 23.16516 | 39044 ft | 534 kts | 134° |
| 2026-04-28 16:01 | 44.29824 | 23.24183 | 39045 ft | 534 kts | 134° |
| 2026-04-28 16:01 | 44.24815 | 23.31842 | 39047 ft | 534 kts | 134° |
| 2026-04-28 16:02 | 44.19807 | 23.39480 | 39054 ft | 534 kts | 134° |
| 2026-04-28 16:02 | 44.15069 | 23.46686 | 39051 ft | 534 kts | 134° |
| 2026-04-28 16:03 | 44.14063 | 23.48214 | 39048 ft | 533 kts | 134° |
| 2026-04-28 16:03 | 44.10887 | 23.53026 | 39062 ft | 533 kts | 134° |
| 2026-04-28 16:04 | 44.10465 | 23.53666 | 39072 ft | 533 kts | 134° |
| 2026-04-28 16:04 | 44.09049 | 23.55810 | 39117 ft | 530 kts | 134° |
| 2026-04-28 16:05 | 44.08403 | 23.56789 | 39120 ft | 528 kts | 134° |
| 2026-04-28 16:05 | 44.03862 | 23.63681 | 39094 ft | 525 kts | 134° |
| 2026-04-28 16:06 | 43.98903 | 23.71152 | 39097 ft | 526 kts | 134° |
| 2026-04-28 16:06 | 43.93932 | 23.78616 | 39095 ft | 526 kts | 134° |
| 2026-04-28 16:07 | 43.88960 | 23.86070 | 39099 ft | 526 kts | 134° |
| 2026-04-28 16:08 | 43.81497 | 23.97226 | 39104 ft | 526 kts | 134° |
| 2026-04-28 16:08 | 43.76521 | 24.04641 | 39083 ft | 526 kts | 134° |
| 2026-04-28 16:09 | 43.69057 | 24.15728 | 39090 ft | 525 kts | 134° |
| 2026-04-28 16:10 | 43.63750 | 24.23582 | 39092 ft | 525 kts | 134° |